Dunkirk, New York
Current Conditions -  °F | °C
As of 6:53 AM on Sunday 23 Nov 2014 (Local Time) from KDKK Reporting Station
Overcast Overcast  
Wind Chill: 40°   Ceiling: 5500
Heat Index: 47°   Visibility: 10mi
Dew Point: 33°   Wind: 18mph
Humidity: 59%   Direction: 200°SSW
Pressure: 30.02"   Gusts: 25mph
Location:  42.49°N, 79.34°W
Report Text: KDKK 231153Z AUTO 20016G22KT 10SM OVC055 08/01 A3002 RMK AO2 SLP169 60001 70016 T00830006 10083 20061 53006
Loading
Personal Weather Stations






























Interactive Weather Map New forecast layout! Learn more

10-Day Weather Forecast

Advertisements
Track Severe Weather on mobile